createdAt,value
2022-08-04T00:01:34.432Z,101047.59
2022-08-04T00:04:04.959Z,101046.94
2022-08-04T00:06:45.141Z,101043.16
2022-08-04T00:09:18.220Z,101042.97
2022-08-04T00:11:47.776Z,101044.00
2022-08-04T00:14:17.151Z,101041.25
2022-08-04T00:16:44.728Z,101034.28
2022-08-04T00:19:14.229Z,101041.69
2022-08-04T00:21:44.455Z,101039.13
2022-08-04T00:24:11.606Z,101033.19
2022-08-04T00:26:37.079Z,101038.69
2022-08-04T00:29:01.704Z,101035.94
2022-08-04T00:31:53.944Z,101035.31
2022-08-04T00:34:13.682Z,101046.47
2022-08-04T00:36:37.480Z,101040.97
2022-08-04T00:39:01.934Z,101037.16
2022-08-04T00:41:56.209Z,101035.47
2022-08-04T00:44:39.405Z,101036.91
2022-08-04T00:47:17.662Z,101035.41
2022-08-04T00:50:06.894Z,101028.44
2022-08-04T00:52:42.608Z,101033.28
2022-08-04T00:55:25.111Z,101034.13
2022-08-04T00:58:22.536Z,101035.56
2022-08-04T01:00:56.413Z,101034.91
2022-08-04T01:03:28.331Z,101030.69
2022-08-04T01:06:08.006Z,101036.38
2022-08-04T01:08:53.535Z,101031.28
2022-08-04T01:11:33.593Z,101034.44
2022-08-04T01:14:33.835Z,101032.09
2022-08-04T01:17:08.347Z,101033.34
2022-08-04T01:20:04.012Z,101037.31
2022-08-04T01:23:29.174Z,101037.44
2022-08-04T01:26:57.629Z,101032.34
2022-08-04T01:29:29.310Z,101034.03
2022-08-04T01:32:09.188Z,101031.72
2022-08-04T01:34:37.923Z,101036.72
2022-08-04T01:37:10.313Z,101037.31
2022-08-04T01:39:42.804Z,101037.69
2022-08-04T01:42:09.735Z,101034.97
2022-08-04T01:44:37.175Z,101043.75
2022-08-04T01:47:03.108Z,101043.75
2022-08-04T01:49:40.210Z,101037.84
2022-08-04T01:52:05.432Z,101034.66
2022-08-04T01:54:30.860Z,101037.13
2022-08-04T01:56:56.381Z,101028.91
2022-08-04T01:59:21.844Z,101027.22
2022-08-04T02:01:47.361Z,101038.56
2022-08-04T02:04:21.359Z,101030.94
2022-08-04T02:07:02.892Z,101023.13
2022-08-04T02:09:35.416Z,101031.13
2022-08-04T02:12:27.994Z,101030.78
2022-08-04T02:14:59.988Z,101030.78
2022-08-04T02:17:32.469Z,101028.66
2022-08-04T02:20:10.623Z,101028.00
2022-08-04T02:22:40.383Z,101030.09
2022-08-04T02:25:09.561Z,101026.22
2022-08-04T02:28:18.209Z,101019.25
2022-08-04T02:30:53.335Z,101025.31
2022-08-04T02:33:30.692Z,101020.25
2022-08-04T02:36:02.418Z,101016.34
2022-08-04T02:38:44.589Z,101014.84
2022-08-04T02:41:11.400Z,101018.63
2022-08-04T02:43:50.848Z,101009.97
2022-08-04T02:46:19.840Z,101010.16
2022-08-04T02:48:48.011Z,101010.53
2022-08-04T02:51:15.022Z,101007.78
2022-08-04T02:53:39.301Z,101009.88
2022-08-04T02:56:04.257Z,101006.50
2022-08-04T02:58:31.558Z,101010.25
2022-08-04T03:00:55.337Z,101009.59
2022-08-04T03:03:32.651Z,101007.44
2022-08-04T03:06:48.799Z,101003.22
2022-08-04T03:09:38.719Z,101010.06
2022-08-04T03:12:29.353Z,101011.13
2022-08-04T03:15:33.446Z,101007.53
2022-08-04T03:18:32.763Z,101015.94
2022-08-04T03:21:34.751Z,101008.78
2022-08-04T03:24:53.780Z,101010.22
2022-08-04T03:28:10.787Z,101013.97
2022-08-04T03:30:57.973Z,101012.94
2022-08-04T03:33:54.219Z,101011.25
2022-08-04T03:36:48.463Z,101007.47
2022-08-04T03:40:08.925Z,101014.34
2022-08-04T03:43:05.264Z,101017.47
2022-08-04T03:46:11.402Z,101016.59
2022-08-04T03:49:37.107Z,101010.47
2022-08-04T03:52:32.355Z,101013.41
2022-08-04T03:55:44.007Z,101018.41
2022-08-04T03:58:44.947Z,101010.41
2022-08-04T04:01:27.079Z,101014.72
2022-08-04T04:04:23.442Z,101004.53
2022-08-04T04:07:27.196Z,101003.28
2022-08-04T04:10:39.804Z,100998.56
2022-08-04T04:13:50.448Z,101009.53
2022-08-04T04:16:48.940Z,101005.22
2022-08-04T04:19:34.213Z,101010.94
2022-08-04T04:22:25.047Z,101011.63
2022-08-04T04:25:10.063Z,101010.38
2022-08-04T04:27:50.442Z,101009.00
2022-08-04T04:30:20.701Z,101010.28
2022-08-04T04:33:07.892Z,101012.47
2022-08-04T04:35:40.117Z,101014.16
2022-08-04T04:38:35.965Z,101013.13
2022-08-04T04:41:34.091Z,101010.66
2022-08-04T04:44:45.624Z,101006.34
2022-08-04T04:47:43.094Z,101011.59
2022-08-04T04:50:14.556Z,101018.22
2022-08-04T04:52:43.551Z,101017.81
2022-08-04T04:55:17.321Z,101017.06
2022-08-04T04:57:53.853Z,101011.03
2022-08-04T05:00:20.027Z,101011.09
2022-08-04T05:03:17.534Z,101022.75
2022-08-04T05:06:38.436Z,101021.56
2022-08-04T05:09:17.163Z,101020.41
2022-08-04T05:14:26.362Z,101022.41
2022-08-04T05:15:12.233Z,101030.94
2022-08-04T05:17:41.344Z,101020.25
2022-08-04T05:20:10.418Z,101015.03
2022-08-04T05:22:41.306Z,101015.56
2022-08-04T05:25:15.910Z,101026.38
2022-08-04T05:27:47.136Z,101018.50
2022-08-04T05:30:14.271Z,101016.47
2022-08-04T05:32:46.979Z,101015.47
2022-08-04T05:35:47.858Z,101018.75
2022-08-04T05:38:04.868Z,101018.81
2022-08-04T05:40:28.740Z,101020.78
2022-08-04T05:42:55.327Z,101016.84
2022-08-04T05:45:21.969Z,101021.34
2022-08-04T05:47:46.969Z,101020.19
2022-08-04T05:50:11.122Z,101013.06
2022-08-04T05:52:37.799Z,101015.50
2022-08-04T05:55:03.187Z,101011.78
2022-08-04T05:57:27.688Z,101018.38
2022-08-04T05:59:53.766Z,101019.13
2022-08-04T06:02:19.949Z,101026.91
2022-08-04T06:04:46.891Z,101021.56
2022-08-04T06:07:11.719Z,101024.09
2022-08-04T06:09:35.900Z,101027.19
2022-08-04T06:12:04.891Z,101020.13
2022-08-04T06:14:34.580Z,101015.91
2022-08-04T06:16:59.536Z,101019.84
2022-08-04T06:20:02.379Z,101019.69
2022-08-04T06:22:13.813Z,101024.34
2022-08-04T06:24:39.234Z,101033.13
2022-08-04T06:27:06.349Z,101024.91
2022-08-04T06:29:36.256Z,101023.78
2022-08-04T06:32:29.490Z,101024.59
2022-08-04T06:34:49.079Z,101029.13
2022-08-04T06:37:24.105Z,101030.19
2022-08-04T06:39:58.136Z,101026.44
2022-08-04T06:42:24.536Z,101039.03
2022-08-04T06:44:52.505Z,101035.38
2022-08-04T06:47:19.548Z,101028.69
2022-08-04T06:51:23.329Z,101020.69
2022-08-04T06:52:29.758Z,101030.25
2022-08-04T06:54:55.745Z,101023.00
2022-08-04T06:57:23.614Z,101027.78
2022-08-04T06:59:52.197Z,101028.91
2022-08-04T07:02:18.889Z,101017.50
2022-08-04T07:04:43.150Z,101019.47
2022-08-04T07:07:07.120Z,101021.13
2022-08-04T07:09:33.039Z,101013.28
2022-08-04T07:11:57.083Z,101015.81
2022-08-04T07:14:21.653Z,101011.91
2022-08-04T07:16:47.578Z,101014.41
2022-08-04T07:19:14.732Z,101012.75
2022-08-04T07:21:41.671Z,101013.06
2022-08-04T07:24:33.104Z,101014.88
2022-08-04T07:26:57.473Z,101009.34
2022-08-04T07:29:21.258Z,101001.00
2022-08-04T07:31:45.478Z,101011.59
2022-08-04T07:34:11.518Z,101007.03
2022-08-04T07:36:50.459Z,101005.66
2022-08-04T07:39:26.402Z,101005.94
2022-08-04T07:41:55.720Z,101002.22
2022-08-04T07:44:19.972Z,101002.47
2022-08-04T07:46:44.736Z,101007.28
2022-08-04T07:49:09.215Z,100997.88
2022-08-04T07:51:36.445Z,100999.94
2022-08-04T07:54:03.443Z,101003.28
2022-08-04T07:56:28.078Z,100996.78
2022-08-04T07:58:53.299Z,100997.00
2022-08-04T08:01:17.561Z,101000.09
2022-08-04T08:03:42.769Z,100995.06
2022-08-04T08:06:17.295Z,100992.47
2022-08-04T08:08:50.864Z,100995.28
2022-08-04T08:11:14.833Z,100989.38
2022-08-04T08:13:39.229Z,100988.38
2022-08-04T08:16:05.321Z,100979.19
2022-08-04T08:18:29.136Z,100980.81
2022-08-04T08:20:53.787Z,100974.94
2022-08-04T08:23:17.649Z,100977.84
2022-08-04T08:25:45.792Z,100977.97
2022-08-04T08:28:09.865Z,100969.25
2022-08-04T08:30:34.956Z,100970.31
2022-08-04T08:33:06.409Z,100973.84
2022-08-04T08:35:39.841Z,100969.25
2022-08-04T08:38:24.428Z,100972.47
2022-08-04T08:40:55.445Z,100972.81
2022-08-04T08:44:05.824Z,100966.41
2022-08-04T08:46:56.981Z,100967.84
2022-08-04T08:50:02.680Z,100967.75
2022-08-04T08:52:56.644Z,100963.81
2022-08-04T08:55:41.300Z,100962.44
2022-08-04T08:58:47.327Z,100966.00
2022-08-04T09:01:27.588Z,100964.19
2022-08-04T09:04:57.633Z,100962.78
2022-08-04T09:07:50.972Z,100961.06
2022-08-04T09:10:20.988Z,100960.03
2022-08-04T09:12:54.319Z,100964.47
2022-08-04T09:15:29.808Z,100964.84
2022-08-04T09:18:01.102Z,100965.78
2022-08-04T09:20:33.329Z,100967.13
2022-08-04T09:23:14.868Z,100963.59
2022-08-04T09:25:49.775Z,100963.91
2022-08-04T09:28:52.459Z,100968.69
2022-08-04T09:31:14.394Z,100957.31
2022-08-04T09:33:49.884Z,100952.34
2022-08-04T09:36:29.993Z,100950.41
2022-08-04T09:39:09.719Z,100957.38
2022-08-04T09:41:49.677Z,100952.38
2022-08-04T09:44:51.334Z,100955.19
2022-08-04T09:47:17.946Z,100953.81
2022-08-04T09:49:51.780Z,100942.72
2022-08-04T09:52:29.763Z,100943.00
2022-08-04T09:55:07.067Z,100937.44
2022-08-04T09:57:47.368Z,100934.94
2022-08-04T10:00:16.857Z,100948.03
2022-08-04T10:02:45.833Z,100936.00
2022-08-04T10:05:16.389Z,100932.66
2022-08-04T10:08:16.089Z,100939.25
2022-08-04T10:10:53.678Z,100932.00
2022-08-04T10:13:34.893Z,100925.94
2022-08-04T10:16:13.405Z,100926.53
2022-08-04T10:18:54.711Z,100931.53
2022-08-04T10:21:26.952Z,100928.56
2022-08-04T10:24:25.292Z,100928.31
2022-08-04T10:26:58.477Z,100922.22
2022-08-04T10:29:29.856Z,100928.34
2022-08-04T10:32:02.203Z,100920.72
2022-08-04T10:34:31.231Z,100921.00
2022-08-04T10:37:03.806Z,100912.00
2022-08-04T10:39:43.793Z,100914.34
2022-08-04T10:42:18.297Z,100912.19
2022-08-04T10:44:59.585Z,100916.31
2022-08-04T10:47:28.676Z,100912.38
2022-08-04T10:49:57.653Z,100906.13
2022-08-04T10:52:33.858Z,100905.31
2022-08-04T10:55:07.153Z,100903.22
2022-08-04T10:57:39.120Z,100903.47
2022-08-04T11:00:07.292Z,100895.19
2022-08-04T11:02:41.548Z,100892.28
2022-08-04T11:05:19.300Z,100891.31
2022-08-04T11:07:47.341Z,100892.63
2022-08-04T11:10:11.261Z,100886.38
2022-08-04T11:12:37.275Z,100888.25
2022-08-04T11:15:06.435Z,100894.78
2022-08-04T11:17:36.214Z,100881.78
2022-08-04T11:20:34.181Z,100873.50
2022-08-04T11:23:05.652Z,100880.06
2022-08-04T11:25:38.522Z,100882.13
2022-08-04T11:28:13.267Z,100875.97
2022-08-04T11:30:45.756Z,100882.78
2022-08-04T11:33:23.612Z,100881.56
2022-08-04T11:35:53.814Z,100873.22
2022-08-04T11:38:27.967Z,100876.66
2022-08-04T11:41:03.126Z,100884.41
2022-08-04T11:44:00.933Z,100876.28
2022-08-04T11:46:28.900Z,100880.69
2022-08-04T11:49:03.438Z,100876.13
2022-08-04T11:51:29.899Z,100865.22
2022-08-04T11:53:53.653Z,100881.59
2022-08-04T11:56:37.194Z,100883.53
2022-08-04T11:59:05.250Z,100878.94
2022-08-04T12:01:43.823Z,100873.16
2022-08-04T12:04:15.628Z,100866.63
2022-08-04T12:06:56.866Z,100860.56
2022-08-04T12:09:36.222Z,100867.16
2022-08-04T12:12:14.308Z,100868.91
2022-08-04T12:14:50.752Z,100860.19
2022-08-04T12:17:23.969Z,100858.75
2022-08-04T12:20:05.200Z,100849.13
2022-08-04T12:22:48.357Z,100849.13
2022-08-04T12:25:19.553Z,100853.72
2022-08-04T12:27:51.341Z,100861.25
2022-08-04T12:31:00.427Z,100851.94
2022-08-04T12:33:08.597Z,100847.63
2022-08-04T12:35:40.655Z,100851.97
2022-08-04T12:38:28.236Z,100849.44
2022-08-04T12:40:56.981Z,100833.19
2022-08-04T12:43:25.984Z,100844.16
2022-08-04T12:45:56.835Z,100838.72
2022-08-04T12:48:21.767Z,100840.69
2022-08-04T12:50:49.715Z,100841.56
2022-08-04T12:53:19.538Z,100835.91
2022-08-04T12:56:01.389Z,100827.97
2022-08-04T12:58:42.000Z,100827.41
2022-08-04T13:02:09.699Z,100826.84
2022-08-04T13:04:02.222Z,100817.41
2022-08-04T13:06:28.977Z,100823.06
2022-08-04T13:08:53.189Z,100821.56
2022-08-04T13:11:19.137Z,100811.00
2022-08-04T13:13:45.771Z,100815.56
2022-08-04T13:16:14.331Z,100817.44
2022-08-04T13:18:42.819Z,100816.69
2022-08-04T13:21:20.570Z,100813.66
2022-08-04T13:24:19.627Z,100808.09
2022-08-04T13:26:42.376Z,100807.66
2022-08-04T13:29:17.025Z,100801.13
2022-08-04T13:31:52.954Z,100805.78
2022-08-04T13:34:19.347Z,100797.34
2022-08-04T13:36:44.953Z,100800.19
2022-08-04T13:39:17.451Z,100801.81
2022-08-04T13:41:56.971Z,100795.53
2022-08-04T13:44:27.844Z,100800.47
2022-08-04T13:46:57.940Z,100786.59
2022-08-04T13:49:42.766Z,100794.19
2022-08-04T13:52:11.060Z,100790.84
2022-08-04T13:54:42.454Z,100781.72
2022-08-04T13:57:14.150Z,100791.13
2022-08-04T13:59:40.119Z,100781.59
2022-08-04T14:02:11.348Z,100783.03
2022-08-04T14:04:42.272Z,100787.34
2022-08-04T14:07:17.746Z,100777.59
2022-08-04T14:10:03.442Z,100765.00
2022-08-04T14:12:45.699Z,100774.19
2022-08-04T14:16:01.206Z,100759.03
2022-08-04T14:18:22.570Z,100757.94
2022-08-04T14:21:09.495Z,100753.63
2022-08-04T14:23:47.735Z,100756.03
2022-08-04T14:26:31.449Z,100757.53
2022-08-04T14:29:28.463Z,100754.53
2022-08-04T14:31:57.776Z,100753.78
2022-08-04T14:34:30.054Z,100750.94
2022-08-04T14:37:16.981Z,100748.78
2022-08-04T14:39:40.496Z,100745.34
2022-08-04T14:42:04.773Z,100741.81
2022-08-04T14:44:28.704Z,100736.13
2022-08-04T14:46:54.481Z,100740.66
2022-08-04T14:49:18.251Z,100734.09
2022-08-04T14:51:45.452Z,100740.16
2022-08-04T14:54:15.806Z,100733.50
2022-08-04T14:56:47.200Z,100739.72
2022-08-04T14:59:12.912Z,100731.56
2022-08-04T15:01:37.843Z,100725.69
2022-08-04T15:04:04.580Z,100732.53
2022-08-04T15:06:30.537Z,100726.72
2022-08-04T15:08:58.578Z,100719.69
2022-08-04T15:11:24.391Z,100719.03
2022-08-04T15:13:48.525Z,100721.25
2022-08-04T15:16:13.971Z,100722.22
2022-08-04T15:18:39.388Z,100712.91
2022-08-04T15:21:04.126Z,100706.13
2022-08-04T15:23:38.428Z,100703.72
2022-08-04T15:26:07.994Z,100705.00
2022-08-04T15:28:34.663Z,100704.94
2022-08-04T15:30:59.319Z,100707.78
2022-08-04T15:33:33.566Z,100694.50
2022-08-04T15:36:14.445Z,100685.97
2022-08-04T15:38:43.722Z,100693.44
2022-08-04T15:41:15.089Z,100690.56
2022-08-04T15:44:00.364Z,100694.66
2022-08-04T15:47:11.548Z,100690.88
2022-08-04T15:49:35.420Z,100694.41
2022-08-04T15:52:01.890Z,100689.13
2022-08-04T15:54:27.833Z,100695.22
2022-08-04T15:57:01.976Z,100679.03
2022-08-04T16:00:08.742Z,100685.19
2022-08-04T16:02:45.503Z,100677.81
2022-08-04T16:05:43.371Z,100683.13
2022-08-04T16:08:18.132Z,100677.63
2022-08-04T16:10:44.778Z,100673.91
2022-08-04T16:13:13.931Z,100667.38
2022-08-04T16:15:46.924Z,100675.09
2022-08-04T16:18:25.657Z,100675.41
2022-08-04T16:20:52.041Z,100672.50
2022-08-04T16:23:59.247Z,100674.34
2022-08-04T16:26:54.694Z,100674.56
2022-08-04T16:29:46.884Z,100659.78
2022-08-04T16:32:17.085Z,100658.78
2022-08-04T16:34:54.746Z,100669.84
2022-08-04T16:37:21.078Z,100663.47
2022-08-04T16:39:50.019Z,100661.91
2022-08-04T16:42:36.296Z,100666.59
2022-08-04T16:45:13.810Z,100665.97
2022-08-04T16:48:04.299Z,100664.16
2022-08-04T16:50:28.228Z,100666.16
2022-08-04T16:52:54.000Z,100653.78
2022-08-04T16:55:19.857Z,100663.22
2022-08-04T16:57:47.524Z,100668.50
2022-08-04T17:00:13.920Z,100655.59
2022-08-04T17:02:38.202Z,100664.13
2022-08-04T17:05:07.498Z,100664.78
2022-08-04T17:08:07.253Z,100662.13
2022-08-04T17:10:39.969Z,100663.06
2022-08-04T17:14:03.414Z,100667.81
2022-08-04T17:16:13.650Z,100658.72
2022-08-04T17:18:45.280Z,100657.75
2022-08-04T17:21:11.618Z,100663.13
2022-08-04T17:24:13.041Z,100663.59
2022-08-04T17:26:39.837Z,100655.28
2022-08-04T17:29:05.584Z,100660.31
2022-08-04T17:31:36.853Z,100665.31
2022-08-04T17:34:04.003Z,100668.06
2022-08-04T17:36:33.607Z,100665.19
2022-08-04T17:39:01.197Z,100665.28
2022-08-04T17:41:30.114Z,100662.00
2022-08-04T17:44:04.720Z,100660.16
2022-08-04T17:46:41.144Z,100673.09
2022-08-04T17:49:11.099Z,100673.16
2022-08-04T17:52:05.606Z,100671.31
2022-08-04T17:54:36.678Z,100659.69
2022-08-04T17:57:10.708Z,100655.81
2022-08-04T17:59:52.058Z,100665.97
2022-08-04T18:02:33.348Z,100664.69
2022-08-04T18:05:08.026Z,100653.34
2022-08-04T18:08:35.606Z,100652.56
2022-08-04T18:10:27.626Z,100651.81
2022-08-04T18:12:54.587Z,100650.75
2022-08-04T18:15:25.612Z,100653.06
2022-08-04T18:18:23.349Z,100644.50
2022-08-04T18:20:50.034Z,100640.63
2022-08-04T18:23:16.786Z,100646.78
2022-08-04T18:25:51.403Z,100649.31
2022-08-04T18:28:20.771Z,100651.56
2022-08-04T18:30:55.657Z,100646.31
2022-08-04T18:33:41.032Z,100653.78
2022-08-04T18:36:33.571Z,100652.97
2022-08-04T18:38:55.538Z,100656.88
2022-08-04T18:41:19.959Z,100659.38
2022-08-04T18:43:43.708Z,100656.00
2022-08-04T18:46:19.807Z,100659.03
2022-08-04T18:48:52.477Z,100661.22
2022-08-04T18:51:23.838Z,100664.78
2022-08-04T18:53:55.194Z,100665.81
2022-08-04T18:59:10.220Z,100672.38
2022-08-04T19:02:16.047Z,100674.28
2022-08-04T19:04:32.967Z,100669.75
2022-08-04T19:07:23.434Z,100662.69
2022-08-04T19:09:52.104Z,100673.16
2022-08-04T19:12:17.529Z,100670.56
2022-08-04T19:14:57.791Z,100675.22
2022-08-04T19:17:52.510Z,100669.84
2022-08-04T19:20:16.130Z,100681.66
2022-08-04T19:24:28.648Z,100672.09
2022-08-04T19:26:02.479Z,100676.97
2022-08-04T19:28:17.369Z,100675.19
2022-08-04T19:30:41.449Z,100677.84
2022-08-04T19:33:05.902Z,100677.72
2022-08-04T19:35:31.592Z,100674.81
2022-08-04T19:38:11.029Z,100677.47
2022-08-04T19:40:42.140Z,100678.16
2022-08-04T19:43:16.484Z,100682.22
2022-08-04T19:45:44.841Z,100673.25
2022-08-04T19:48:22.048Z,100680.00
2022-08-04T19:50:48.309Z,100671.28
2022-08-04T19:53:19.368Z,100684.19
2022-08-04T19:55:43.800Z,100672.97
2022-08-04T19:58:13.926Z,100672.06
2022-08-04T20:00:39.420Z,100677.44
2022-08-04T20:03:03.535Z,100682.31
2022-08-04T20:05:54.489Z,100683.00
2022-08-04T20:08:18.636Z,100676.97
2022-08-04T20:10:47.028Z,100681.84
2022-08-04T20:13:15.872Z,100677.56
2022-08-04T20:15:39.605Z,100674.97
2022-08-04T20:18:35.926Z,100677.63
2022-08-04T20:21:00.659Z,100676.69
2022-08-04T20:23:47.706Z,100676.28
2022-08-04T20:26:09.611Z,100670.53
2022-08-04T20:28:36.818Z,100675.97
2022-08-04T20:31:00.646Z,100675.50
2022-08-04T20:33:24.325Z,100680.66
2022-08-04T20:36:05.022Z,100673.38
2022-08-04T20:38:33.778Z,100676.88
2022-08-04T20:40:58.985Z,100690.34
2022-08-04T20:43:25.037Z,100702.16
2022-08-04T20:45:57.010Z,100705.75
2022-08-04T20:48:23.173Z,100705.06
2022-08-04T20:50:49.826Z,100694.00
2022-08-04T20:53:16.822Z,100703.53
2022-08-04T20:55:55.728Z,100700.25
2022-08-04T20:58:19.944Z,100708.41
2022-08-04T21:00:53.292Z,100710.47
2022-08-04T21:03:17.104Z,100700.16
2022-08-04T21:05:40.866Z,100698.22
2022-08-04T21:08:05.425Z,100707.94
2022-08-04T21:10:31.108Z,100704.09
2022-08-04T21:12:56.621Z,100709.25
2022-08-04T21:15:25.140Z,100710.34
2022-08-04T21:17:58.776Z,100710.59
2022-08-04T21:20:28.032Z,100709.25
2022-08-04T21:22:52.148Z,100704.25
2022-08-04T21:25:16.612Z,100701.13
2022-08-04T21:27:44.911Z,100706.13
2022-08-04T21:30:25.390Z,100697.63
2022-08-04T21:32:50.077Z,100709.75
2022-08-04T21:35:16.151Z,100701.69
2022-08-04T21:37:58.083Z,100708.16
2022-08-04T21:40:30.706Z,100697.84
2022-08-04T21:43:00.600Z,100696.16
2022-08-04T21:45:35.981Z,100699.41
2022-08-04T21:48:00.434Z,100702.28
2022-08-04T21:50:25.032Z,100703.34
2022-08-04T21:52:54.448Z,100708.78
2022-08-04T21:55:19.470Z,100693.53
2022-08-04T21:57:43.355Z,100701.19
2022-08-04T22:00:18.620Z,100700.59
2022-08-04T22:02:44.985Z,100694.59
2022-08-04T22:05:09.312Z,100692.56
2022-08-04T22:07:50.204Z,100698.19
2022-08-04T22:10:15.369Z,100698.41
2022-08-04T22:12:46.383Z,100695.53
2022-08-04T22:15:22.758Z,100692.38
2022-08-04T22:18:00.839Z,100690.56
2022-08-04T22:20:28.407Z,100692.72
2022-08-04T22:22:54.190Z,100696.44
2022-08-04T22:25:19.994Z,100688.88
2022-08-04T22:28:03.694Z,100685.97
2022-08-04T22:30:32.911Z,100684.63
2022-08-04T22:32:57.212Z,100679.44
2022-08-04T22:35:36.189Z,100680.38
2022-08-04T22:38:20.631Z,100685.78
2022-08-04T22:40:51.007Z,100689.44
2022-08-04T22:43:32.779Z,100687.00
2022-08-04T22:45:58.075Z,100689.13
2022-08-04T22:48:22.312Z,100675.44
2022-08-04T22:50:47.796Z,100684.41
2022-08-04T22:53:11.570Z,100684.25
2022-08-04T22:56:06.930Z,100684.31
2022-08-04T22:58:28.606Z,100685.63
2022-08-04T23:00:54.030Z,100683.56
2022-08-04T23:03:37.562Z,100685.34
2022-08-04T23:06:10.835Z,100694.50
2022-08-04T23:08:36.398Z,100705.00
2022-08-04T23:11:00.200Z,100707.03
2022-08-04T23:13:24.705Z,100691.88
2022-08-04T23:15:48.471Z,100694.34
2022-08-04T23:18:12.265Z,100697.13
2022-08-04T23:20:39.291Z,100704.53
2022-08-04T23:23:15.085Z,100710.50
2022-08-04T23:26:08.596Z,100707.75
2022-08-04T23:28:22.825Z,100705.69
2022-08-04T23:30:48.787Z,100695.97
2022-08-04T23:33:12.565Z,100704.84
2022-08-04T23:35:39.153Z,100698.09
2022-08-04T23:38:30.953Z,100689.50
2022-08-04T23:40:50.525Z,100682.72
2022-08-04T23:43:17.906Z,100678.00
2022-08-04T23:46:07.663Z,100681.78
2022-08-04T23:48:25.818Z,100682.63
2022-08-04T23:50:50.072Z,100679.25
2022-08-04T23:53:18.595Z,100677.69
2022-08-04T23:55:46.344Z,100671.53
2022-08-04T23:58:18.560Z,100672.97
